createdAt,value
2019-02-12T00:00:25.856Z,17.43
2019-02-12T00:02:54.648Z,33.07
2019-02-12T00:05:22.917Z,20.50
2019-02-12T00:07:52.611Z,27.60
2019-02-12T00:10:20.976Z,31.57
2019-02-12T00:12:49.360Z,27.23
2019-02-12T00:15:17.962Z,17.07
2019-02-12T00:17:46.446Z,17.60
2019-02-12T00:20:35.535Z,19.83
2019-02-12T00:23:03.989Z,31.57
2019-02-12T00:25:32.365Z,23.50
2019-02-12T00:28:00.725Z,21.50
2019-02-12T00:30:29.001Z,18.73
2019-02-12T00:32:58.075Z,16.50
2019-02-12T00:35:26.434Z,22.17
2019-02-12T00:37:55.171Z,14.50
2019-02-12T00:40:23.517Z,22.10
2019-02-12T00:42:51.830Z,22.37
2019-02-12T00:45:20.610Z,22.37
2019-02-12T00:47:48.987Z,25.17
2019-02-12T00:50:17.672Z,16.40
2019-02-12T00:52:46.008Z,20.63
2019-02-12T00:55:14.355Z,32.67
2019-02-12T00:57:42.875Z,37.10
2019-02-12T01:00:14.866Z,32.30
2019-02-12T01:02:43.466Z,25.33
2019-02-12T01:05:12.235Z,25.27
2019-02-12T01:07:40.534Z,30.37
2019-02-12T01:10:10.595Z,27.40
2019-02-12T01:12:38.984Z,24.97
2019-02-12T01:15:09.089Z,31.70
2019-02-12T01:17:37.800Z,21.33
2019-02-12T01:20:08.333Z,29.27
2019-02-12T01:22:36.679Z,33.57
2019-02-12T01:25:05.875Z,28.80
2019-02-12T01:27:34.152Z,28.63
2019-02-12T01:30:02.531Z,21.37
2019-02-12T01:32:30.938Z,27.63
2019-02-12T01:34:59.204Z,17.97
2019-02-12T01:37:27.559Z,24.73
2019-02-12T01:39:56.371Z,16.63
2019-02-12T01:42:24.622Z,28.83
2019-02-12T01:44:52.995Z,24.10
2019-02-12T01:47:21.601Z,21.90
2019-02-12T01:49:49.901Z,31.17
2019-02-12T01:52:18.229Z,22.17
2019-02-12T01:54:46.837Z,19.67
2019-02-12T01:57:15.122Z,27.50
2019-02-12T01:59:43.412Z,20.60
2019-02-12T02:02:12.065Z,29.30
2019-02-12T02:04:40.419Z,21.43
2019-02-12T02:07:09.517Z,17.87
2019-02-12T02:09:38.226Z,19.03
2019-02-12T02:12:06.912Z,48.30
2019-02-12T02:14:35.204Z,20.43
2019-02-12T02:17:03.586Z,23.90
2019-02-12T02:19:33.019Z,23.20
2019-02-12T02:22:01.757Z,24.87
2019-02-12T02:24:30.045Z,25.30
2019-02-12T02:26:58.332Z,21.17
2019-02-12T02:29:26.627Z,17.63
2019-02-12T02:31:54.911Z,31.13
2019-02-12T02:34:23.355Z,21.80
2019-02-12T02:36:53.046Z,33.43
2019-02-12T02:39:21.315Z,27.63
2019-02-12T02:41:49.895Z,26.70
2019-02-12T02:44:18.178Z,25.60
2019-02-12T02:46:46.624Z,34.77
2019-02-12T02:49:15.225Z,27.90
2019-02-12T02:51:43.538Z,31.33
2019-02-12T02:54:12.397Z,29.00
2019-02-12T02:56:40.973Z,24.73
2019-02-12T02:59:09.631Z,34.57
2019-02-12T03:01:38.096Z,21.10
2019-02-12T03:04:06.460Z,33.07
2019-02-12T03:06:34.779Z,36.10
2019-02-12T03:09:04.705Z,33.27
2019-02-12T03:11:33.462Z,40.77
2019-02-12T03:14:02.197Z,28.40
2019-02-12T03:16:30.450Z,33.03
2019-02-12T03:18:58.739Z,39.93
2019-02-12T03:21:27.075Z,52.97
2019-02-12T03:23:55.373Z,36.57
2019-02-12T03:26:23.682Z,38.30
2019-02-12T03:28:52.059Z,40.70
2019-02-12T03:31:20.686Z,39.57
2019-02-12T03:33:49.505Z,52.17
2019-02-12T03:36:17.814Z,41.60
2019-02-12T03:38:46.453Z,44.30
2019-02-12T03:41:14.762Z,56.40
2019-02-12T03:43:43.040Z,41.77
2019-02-12T03:46:11.398Z,43.07
2019-02-12T03:48:39.735Z,42.73
2019-02-12T03:51:08.437Z,39.20
2019-02-12T03:53:36.726Z,40.30
2019-02-12T03:56:05.171Z,54.97
2019-02-12T03:58:33.475Z,52.30
2019-02-12T04:01:01.778Z,59.53
2019-02-12T04:03:30.539Z,51.50
2019-02-12T04:05:59.295Z,46.73
2019-02-12T04:08:27.701Z,38.20
2019-02-12T04:10:55.971Z,65.27
2019-02-12T04:13:24.768Z,39.77
2019-02-12T04:15:53.140Z,39.07
2019-02-12T04:18:21.589Z,48.57
2019-02-12T04:20:49.870Z,51.67
2019-02-12T04:23:18.180Z,50.40
2019-02-12T04:25:46.854Z,50.00
2019-02-12T04:28:16.868Z,51.20
2019-02-12T04:30:45.385Z,41.20
2019-02-12T04:33:13.802Z,46.63
2019-02-12T04:35:43.391Z,55.87
2019-02-12T04:38:11.679Z,50.23
2019-02-12T04:40:39.971Z,56.13
2019-02-12T04:43:08.346Z,54.40
2019-02-12T04:45:37.037Z,57.43
2019-02-12T04:48:06.903Z,58.67
2019-02-12T04:50:35.118Z,50.73
2019-02-12T04:53:03.492Z,64.70
2019-02-12T04:55:31.854Z,52.77
2019-02-12T04:58:01.748Z,52.73
2019-02-12T05:00:30.172Z,54.60
2019-02-12T05:02:58.525Z,49.43
2019-02-12T05:05:26.928Z,70.90
2019-02-12T05:07:55.294Z,70.30
2019-02-12T05:10:28.497Z,55.60
2019-02-12T05:12:58.178Z,56.10
2019-02-12T05:15:26.785Z,62.50
2019-02-12T05:17:55.133Z,63.67
2019-02-12T05:20:23.509Z,62.53
2019-02-12T05:22:51.904Z,59.97
2019-02-12T05:25:20.576Z,45.08
2019-02-12T05:27:49.288Z,52.20
2019-02-12T05:30:17.939Z,42.70
2019-02-12T05:32:46.316Z,53.97
2019-02-12T05:35:14.624Z,45.47
2019-02-12T05:37:42.927Z,48.60
2019-02-12T05:40:11.684Z,64.00
2019-02-12T05:42:40.026Z,59.40
2019-02-12T05:45:11.509Z,55.93
2019-02-12T05:47:39.786Z,57.77
2019-02-12T05:50:09.641Z,59.37
2019-02-12T05:52:38.082Z,44.67
2019-02-12T05:55:06.831Z,54.00
2019-02-12T05:57:35.307Z,70.10
2019-02-12T06:00:05.119Z,52.70
2019-02-12T06:02:33.605Z,51.07
2019-02-12T06:05:01.897Z,60.67
2019-02-12T06:07:30.177Z,45.70
2019-02-12T06:09:58.883Z,59.70
2019-02-12T06:12:28.952Z,54.10
2019-02-12T06:14:57.239Z,55.63
2019-02-12T06:17:25.912Z,57.73
2019-02-12T06:19:54.287Z,54.90
2019-02-12T06:22:22.581Z,59.67
2019-02-12T06:24:50.939Z,49.00
2019-02-12T06:27:19.312Z,50.70
2019-02-12T06:29:47.679Z,49.63
2019-02-12T06:32:16.172Z,51.23
2019-02-12T06:34:44.548Z,49.53
2019-02-12T06:37:12.930Z,48.67
2019-02-12T06:39:42.327Z,48.23
2019-02-12T06:42:10.596Z,57.53
2019-02-12T06:44:38.911Z,51.23
2019-02-12T06:47:07.693Z,48.30
2019-02-12T06:49:36.269Z,44.77
2019-02-12T06:52:05.031Z,50.30
2019-02-12T06:54:33.335Z,50.23
2019-02-12T06:57:01.698Z,55.00
2019-02-12T06:59:30.193Z,51.33
2019-02-12T07:02:18.105Z,51.43
2019-02-12T07:04:46.785Z,48.73
2019-02-12T07:07:25.707Z,43.37
2019-02-12T07:09:54.013Z,56.63
2019-02-12T07:12:25.755Z,40.77
2019-02-12T07:14:55.660Z,60.70
2019-02-12T07:17:43.753Z,46.77
2019-02-12T07:20:13.660Z,48.83
2019-02-12T07:22:56.004Z,47.63
2019-02-12T07:25:25.850Z,57.83
2019-02-12T07:27:58.526Z,42.80
2019-02-12T07:30:30.632Z,40.90
2019-02-12T07:33:18.594Z,48.73
2019-02-12T07:35:51.619Z,43.23
2019-02-12T07:38:40.130Z,57.37
2019-02-12T07:41:19.874Z,31.23
2019-02-12T07:44:01.601Z,49.83
2019-02-12T07:46:43.795Z,43.77
2019-02-12T07:49:14.093Z,40.47
2019-02-12T07:51:47.202Z,37.17
2019-02-12T07:54:20.059Z,44.03
2019-02-12T07:57:06.459Z,36.63
2019-02-12T07:59:42.851Z,48.23
2019-02-12T08:02:29.558Z,36.03
2019-02-12T08:05:14.938Z,34.97
2019-02-12T08:07:47.599Z,38.70
2019-02-12T08:10:33.985Z,37.07
2019-02-12T08:13:12.694Z,36.57
2019-02-12T08:15:42.611Z,38.57
2019-02-12T08:18:12.542Z,36.17
2019-02-12T08:20:54.418Z,42.10
2019-02-12T08:23:41.612Z,44.20
2019-02-12T08:26:11.652Z,39.03
2019-02-12T08:28:58.031Z,51.17
2019-02-12T08:31:42.804Z,35.77
2019-02-12T08:34:15.595Z,36.53
2019-02-12T08:36:45.509Z,30.90
2019-02-12T08:39:15.420Z,38.97
2019-02-12T08:41:45.255Z,36.23
2019-02-12T08:44:20.909Z,41.63
2019-02-12T08:46:50.706Z,32.33
2019-02-12T08:49:21.144Z,36.33
2019-02-12T08:51:51.062Z,31.97
2019-02-12T08:54:24.348Z,44.90
2019-02-12T08:57:03.583Z,28.07
2019-02-12T08:59:36.252Z,28.83
2019-02-12T09:02:15.159Z,35.73
2019-02-12T09:04:51.107Z,32.87
2019-02-12T09:07:24.008Z,32.90
2019-02-12T09:10:05.863Z,26.37
2019-02-12T09:12:45.042Z,34.03
2019-02-12T09:15:14.926Z,32.87
2019-02-12T09:17:46.583Z,37.47
2019-02-12T09:20:19.143Z,36.57
2019-02-12T09:22:49.072Z,36.17
2019-02-12T09:25:21.843Z,34.77
2019-02-12T09:28:09.968Z,34.47
2019-02-12T09:30:39.839Z,31.43
2019-02-12T09:33:12.545Z,35.23
2019-02-12T09:35:42.426Z,36.60
2019-02-12T09:38:24.795Z,34.13
2019-02-12T09:40:57.356Z,38.37
2019-02-12T09:43:43.595Z,37.60
2019-02-12T09:46:13.919Z,35.87
2019-02-12T09:48:43.725Z,46.53
2019-02-12T09:51:29.995Z,43.13
2019-02-12T09:54:16.580Z,31.50
2019-02-12T09:56:46.438Z,31.20
2019-02-12T09:59:22.059Z,41.10
2019-02-12T10:01:54.798Z,38.17
2019-02-12T10:04:42.650Z,29.60
2019-02-12T10:07:12.922Z,36.57
2019-02-12T10:09:51.497Z,29.90
2019-02-12T10:12:21.351Z,35.40
2019-02-12T10:14:54.000Z,36.73
2019-02-12T10:17:40.747Z,31.23
2019-02-12T10:20:27.454Z,33.90
2019-02-12T10:22:57.258Z,39.37
2019-02-12T10:25:25.731Z,33.13
2019-02-12T10:28:04.396Z,34.57
2019-02-12T10:30:40.218Z,26.53
2019-02-12T10:33:08.682Z,40.37
2019-02-12T10:35:37.023Z,35.10
2019-02-12T10:38:05.403Z,32.80
2019-02-12T10:40:33.884Z,27.40
2019-02-12T10:43:02.314Z,28.90
2019-02-12T10:45:30.698Z,31.20
2019-02-12T10:47:59.354Z,32.57
2019-02-12T10:50:27.654Z,32.10
2019-02-12T10:52:56.308Z,30.97
2019-02-12T10:55:24.663Z,35.93
2019-02-12T10:57:53.037Z,29.17
2019-02-12T11:00:21.615Z,31.10
2019-02-12T11:02:49.905Z,32.90
2019-02-12T11:05:18.298Z,37.40
2019-02-12T11:07:46.644Z,37.50
2019-02-12T11:10:15.120Z,31.63
2019-02-12T11:12:43.531Z,40.43
2019-02-12T11:15:11.875Z,33.23
2019-02-12T11:17:40.182Z,35.20
2019-02-12T11:20:09.687Z,36.80
2019-02-12T11:22:38.138Z,30.00
2019-02-12T11:25:07.229Z,33.27
2019-02-12T11:27:35.607Z,28.07
2019-02-12T11:30:05.549Z,31.60
2019-02-12T11:32:34.234Z,34.17
2019-02-12T11:35:02.590Z,34.10
2019-02-12T11:37:30.956Z,33.00
2019-02-12T11:39:59.387Z,29.43
2019-02-12T11:42:28.254Z,27.17
2019-02-12T11:44:56.598Z,26.90
2019-02-12T11:47:24.904Z,28.10
2019-02-12T11:49:53.231Z,30.97
2019-02-12T11:52:21.597Z,26.40
2019-02-12T11:54:50.344Z,27.40
2019-02-12T11:57:18.694Z,26.50
2019-02-12T11:59:47.049Z,25.30
2019-02-12T12:02:15.786Z,32.90
2019-02-12T12:04:44.096Z,29.73
2019-02-12T12:07:12.416Z,26.30
2019-02-12T12:09:41.221Z,29.07
2019-02-12T12:12:09.906Z,30.40
2019-02-12T12:14:38.236Z,25.53
2019-02-12T12:17:06.541Z,26.10
2019-02-12T12:19:34.901Z,22.70
2019-02-12T12:22:03.296Z,24.40
2019-02-12T12:24:31.656Z,27.43
2019-02-12T12:27:00.065Z,23.20
2019-02-12T12:29:28.442Z,34.13
2019-02-12T12:31:56.819Z,31.77
2019-02-12T12:34:25.501Z,29.30
2019-02-12T12:36:53.775Z,22.27
2019-02-12T12:39:22.536Z,24.70
2019-02-12T12:41:50.942Z,23.57
2019-02-12T12:44:19.254Z,25.80
2019-02-12T12:46:47.635Z,17.90
2019-02-12T12:49:16.049Z,22.20
2019-02-12T12:51:44.451Z,20.63
2019-02-12T12:54:13.253Z,17.70
2019-02-12T12:56:43.468Z,20.50
2019-02-12T12:59:11.803Z,18.57
2019-02-12T13:01:40.170Z,17.30
2019-02-12T13:04:08.551Z,19.13
2019-02-12T13:06:36.968Z,27.80
2019-02-12T13:09:05.836Z,25.63
2019-02-12T13:11:34.337Z,21.20
2019-02-12T13:14:02.624Z,25.00
2019-02-12T13:16:31.058Z,28.90
2019-02-12T13:18:59.382Z,21.93
2019-02-12T13:21:27.730Z,21.37
2019-02-12T13:23:56.215Z,19.20
2019-02-12T13:26:24.596Z,27.27
2019-02-12T13:28:52.882Z,19.73
2019-02-12T13:31:21.318Z,17.50
2019-02-12T13:33:49.705Z,21.40
2019-02-12T13:36:19.972Z,18.57
2019-02-12T13:38:49.200Z,19.87
2019-02-12T13:41:18.032Z,18.33
2019-02-12T13:43:46.330Z,20.70
2019-02-12T13:46:14.686Z,17.90
2019-02-12T13:48:43.134Z,20.00
2019-02-12T13:51:11.482Z,18.97
2019-02-12T13:53:39.890Z,18.60
2019-02-12T13:56:08.673Z,26.33
2019-02-12T13:58:37.155Z,34.70
2019-02-12T14:01:05.973Z,16.07
2019-02-12T14:03:34.317Z,19.30
2019-02-12T14:06:02.811Z,16.83
2019-02-12T14:08:31.064Z,22.57
2019-02-12T14:10:59.362Z,17.87
2019-02-12T14:13:27.643Z,16.67
2019-02-12T14:15:55.933Z,21.50
2019-02-12T14:18:24.375Z,25.07
2019-02-12T14:20:53.847Z,21.20
2019-02-12T14:23:22.146Z,17.60
2019-02-12T14:25:50.531Z,19.80
2019-02-12T14:28:18.966Z,22.00
2019-02-12T14:30:47.340Z,16.77
2019-02-12T14:33:16.102Z,17.10
2019-02-12T14:35:44.478Z,21.33
2019-02-12T14:38:12.772Z,16.37
2019-02-12T14:40:41.335Z,18.47
2019-02-12T14:43:14.099Z,21.43
2019-02-12T14:45:39.699Z,15.63
2019-02-12T14:48:09.200Z,22.60
2019-02-12T14:50:37.577Z,18.47
2019-02-12T14:53:05.956Z,18.53
2019-02-12T14:55:34.321Z,22.50
2019-02-12T14:58:02.602Z,24.03
2019-02-12T15:00:30.982Z,20.33
2019-02-12T15:02:59.460Z,15.00
2019-02-12T15:05:28.251Z,16.90
2019-02-12T15:07:56.532Z,14.30
2019-02-12T15:10:25.008Z,15.60
2019-02-12T15:12:53.461Z,30.03
2019-02-12T15:15:21.863Z,19.87
2019-02-12T15:17:50.545Z,21.57
2019-02-12T15:20:19.031Z,17.20
2019-02-12T15:22:47.503Z,18.83
2019-02-12T15:25:15.881Z,22.23
2019-02-12T15:27:44.363Z,19.63
2019-02-12T15:30:14.277Z,20.43
2019-02-12T15:32:42.688Z,20.83
2019-02-12T15:35:11.570Z,20.97
2019-02-12T15:37:40.040Z,15.30
2019-02-12T15:40:10.138Z,26.67
2019-02-12T15:42:38.615Z,16.27
2019-02-12T15:45:08.846Z,16.73
2019-02-12T15:47:37.418Z,22.13
2019-02-12T15:50:07.258Z,19.03
2019-02-12T15:52:35.567Z,19.93
2019-02-12T15:55:06.447Z,20.17
2019-02-12T15:57:36.290Z,20.00
2019-02-12T16:00:09.267Z,18.87
2019-02-12T16:02:37.747Z,17.80
2019-02-12T16:05:08.476Z,20.10
2019-02-12T16:07:37.726Z,17.57
2019-02-12T16:10:07.972Z,22.83
2019-02-12T16:12:36.352Z,21.43
2019-02-12T16:15:06.186Z,20.80
2019-02-12T16:17:35.377Z,20.10
2019-02-12T16:20:06.145Z,18.93
2019-02-12T16:22:35.006Z,21.70
2019-02-12T16:25:04.132Z,24.17
2019-02-12T16:27:32.550Z,25.70
2019-02-12T16:30:01.600Z,21.87
2019-02-12T16:32:30.016Z,19.60
2019-02-12T16:34:58.334Z,16.30
2019-02-12T16:37:26.771Z,19.20
2019-02-12T16:39:55.157Z,28.70
2019-02-12T16:42:24.064Z,31.30
2019-02-12T16:44:52.446Z,22.83
2019-02-12T16:47:20.729Z,24.60
2019-02-12T16:49:49.071Z,25.07
2019-02-12T16:52:20.861Z,23.73
2019-02-12T16:54:47.561Z,21.20
2019-02-12T16:57:15.867Z,24.90
2019-02-12T16:59:44.220Z,26.80
2019-02-12T17:02:12.724Z,26.90
2019-02-12T17:04:41.087Z,19.43
2019-02-12T17:07:09.884Z,25.33
2019-02-12T17:09:38.274Z,24.43
2019-02-12T17:12:06.948Z,24.60
2019-02-12T17:14:35.308Z,25.60
2019-02-12T17:17:03.779Z,27.77
2019-02-12T17:19:32.257Z,23.80
2019-02-12T17:22:00.545Z,24.17
2019-02-12T17:24:30.567Z,31.97
2019-02-12T17:26:58.820Z,21.23
2019-02-12T17:29:27.107Z,19.00
2019-02-12T17:31:55.471Z,20.70
2019-02-12T17:34:23.764Z,25.17
2019-02-12T17:36:52.341Z,22.73
2019-02-12T17:39:20.703Z,24.53
2019-02-12T17:41:49.315Z,20.63
2019-02-12T17:44:17.665Z,20.20
2019-02-12T17:46:45.980Z,24.57
2019-02-12T17:49:14.263Z,22.77
2019-02-12T17:51:42.626Z,30.37
2019-02-12T17:54:10.919Z,26.43
2019-02-12T17:56:39.749Z,22.57
2019-02-12T17:59:08.371Z,22.50
2019-02-12T18:01:37.259Z,24.30
2019-02-12T18:04:05.548Z,36.50
2019-02-12T18:06:33.884Z,23.53
2019-02-12T18:09:02.359Z,28.33
2019-02-12T18:11:31.144Z,29.50
2019-02-12T18:13:59.628Z,28.97
2019-02-12T18:16:27.956Z,26.53
2019-02-12T18:18:56.684Z,26.83
2019-02-12T18:21:24.983Z,26.33
2019-02-12T18:23:53.379Z,30.33
2019-02-12T18:26:21.852Z,26.27
2019-02-12T18:28:50.216Z,38.47
2019-02-12T18:31:19.112Z,23.13
2019-02-12T18:33:49.225Z,32.67
2019-02-12T18:36:17.636Z,28.20
2019-02-12T18:38:46.158Z,31.17
2019-02-12T18:41:14.668Z,25.23
2019-02-12T18:43:43.017Z,27.53
2019-02-12T18:46:11.495Z,30.23
2019-02-12T18:48:40.004Z,27.50
2019-02-12T18:51:08.357Z,37.03
2019-02-12T18:53:36.832Z,27.30
2019-02-12T18:56:05.204Z,26.40
2019-02-12T18:58:33.606Z,24.43
2019-02-12T19:01:02.371Z,29.50
2019-02-12T19:03:30.805Z,29.40
2019-02-12T19:05:59.259Z,34.30
2019-02-12T19:08:28.021Z,26.13
2019-02-12T19:10:56.625Z,24.07
2019-02-12T19:13:24.996Z,25.57
2019-02-12T19:15:53.485Z,31.90
2019-02-12T19:18:23.026Z,31.80
2019-02-12T19:20:51.437Z,25.70
2019-02-12T19:23:20.145Z,26.53
2019-02-12T19:25:48.447Z,33.10
2019-02-12T19:28:18.604Z,24.30
2019-02-12T19:30:47.024Z,28.47
2019-02-12T19:33:15.275Z,39.83
2019-02-12T19:35:43.643Z,27.03
2019-02-12T19:38:11.965Z,22.30
2019-02-12T19:40:40.339Z,27.20
2019-02-12T19:43:09.008Z,32.00
2019-02-12T19:45:37.382Z,30.83
2019-02-12T19:48:05.842Z,24.77
2019-02-12T19:50:34.348Z,29.27
2019-02-12T19:53:02.637Z,30.40
2019-02-12T19:55:31.075Z,26.47
2019-02-12T19:57:59.400Z,29.63
2019-02-12T20:00:27.825Z,29.53
2019-02-12T20:02:56.204Z,29.57
2019-02-12T20:05:24.576Z,22.43
2019-02-12T20:07:52.961Z,27.00
2019-02-12T20:10:21.875Z,27.87
2019-02-12T20:12:50.228Z,31.77
2019-02-12T20:15:22.185Z,28.60
2019-02-12T20:17:50.694Z,26.87
2019-02-12T20:20:19.445Z,26.33
2019-02-12T20:22:47.836Z,29.10
2019-02-12T20:25:16.234Z,26.53
2019-02-12T20:27:45.123Z,25.63
2019-02-12T20:30:20.880Z,26.20
2019-02-12T20:32:49.209Z,24.50
2019-02-12T20:35:18.863Z,32.97
2019-02-12T20:37:47.217Z,26.50
2019-02-12T20:40:15.705Z,26.73
2019-02-12T20:42:44.307Z,26.47
2019-02-12T20:45:16.569Z,28.50
2019-02-12T20:47:45.322Z,25.80
2019-02-12T20:50:18.004Z,26.00
2019-02-12T20:52:46.821Z,28.40
2019-02-12T20:55:15.194Z,33.83
2019-02-12T20:57:43.544Z,26.63
2019-02-12T21:00:16.441Z,25.23
2019-02-12T21:02:45.247Z,28.30
2019-02-12T21:05:14.961Z,25.47
2019-02-12T21:07:43.680Z,26.97
2019-02-12T21:10:13.536Z,31.53
2019-02-12T21:12:43.169Z,28.87
2019-02-12T21:15:13.097Z,24.93
2019-02-12T21:17:42.116Z,27.33
2019-02-12T21:20:11.265Z,23.80
2019-02-12T21:22:40.812Z,26.40
2019-02-12T21:25:10.793Z,26.20
2019-02-12T21:27:39.215Z,23.17
2019-02-12T21:30:13.077Z,29.17
2019-02-12T21:32:42.246Z,35.33
2019-02-12T21:35:12.334Z,23.30
2019-02-12T21:37:40.697Z,19.97
2019-02-12T21:40:10.781Z,20.00
2019-02-12T21:42:39.143Z,21.90
2019-02-12T21:45:09.384Z,23.00
2019-02-12T21:47:37.712Z,25.00
2019-02-12T21:50:07.775Z,24.90
2019-02-12T21:52:36.152Z,29.73
2019-02-12T21:55:15.034Z,24.13
2019-02-12T21:57:43.924Z,25.63
2019-02-12T22:00:13.931Z,22.10
2019-02-12T22:02:42.622Z,28.33
2019-02-12T22:05:11.979Z,24.37
2019-02-12T22:07:40.364Z,25.90
2019-02-12T22:10:13.026Z,23.73
2019-02-12T22:12:41.450Z,24.40
2019-02-12T22:15:11.441Z,27.60
2019-02-12T22:17:40.967Z,23.73
2019-02-12T22:20:10.984Z,22.87
2019-02-12T22:22:39.429Z,24.00
2019-02-12T22:25:08.759Z,22.70
2019-02-12T22:27:40.524Z,23.30
2019-02-12T22:30:08.597Z,25.43
2019-02-12T22:32:37.374Z,23.23
2019-02-12T22:35:06.161Z,21.43
2019-02-12T22:37:34.455Z,27.43
2019-02-12T22:40:03.295Z,25.53
2019-02-12T22:42:32.428Z,20.93
2019-02-12T22:45:01.519Z,26.70
2019-02-12T22:47:30.068Z,29.53
2019-02-12T22:49:58.353Z,23.70
2019-02-12T22:52:27.718Z,21.50
2019-02-12T22:54:56.167Z,23.60
2019-02-12T22:57:24.450Z,21.33
2019-02-12T22:59:52.743Z,22.40
2019-02-12T23:02:21.609Z,21.80
2019-02-12T23:04:49.866Z,26.43
2019-02-12T23:07:18.346Z,21.40
2019-02-12T23:09:46.629Z,31.70
2019-02-12T23:12:15.012Z,24.33
2019-02-12T23:14:43.401Z,25.80
2019-02-12T23:17:11.662Z,23.40
2019-02-12T23:19:40.360Z,22.27
2019-02-12T23:22:08.756Z,25.03
2019-02-12T23:24:37.085Z,22.67
2019-02-12T23:27:05.450Z,21.77
2019-02-12T23:29:33.832Z,27.10
2019-02-12T23:32:02.198Z,29.70
2019-02-12T23:34:30.592Z,23.57
2019-02-12T23:36:59.076Z,20.87
2019-02-12T23:39:27.475Z,24.07
2019-02-12T23:41:57.446Z,27.37
2019-02-12T23:44:25.756Z,26.60
2019-02-12T23:46:54.071Z,29.43
2019-02-12T23:49:22.388Z,23.03
2019-02-12T23:51:50.777Z,20.77
2019-02-12T23:54:19.107Z,23.33
2019-02-12T23:56:47.389Z,21.30
2019-02-12T23:59:15.705Z,23.20
